sensor_id;sensor_type;location;lat;lon;timestamp;P1;durP1;ratioP1;P2;durP2;ratioP2
28627;SDS011;15815;46.760;19.604;2023-06-22T00:02:17;18.23;;;4.47;;
28627;SDS011;15815;46.760;19.604;2023-06-22T00:04:43;17.35;;;4.85;;
28627;SDS011;15815;46.760;19.604;2023-06-22T00:07:09;22.15;;;5.30;;
28627;SDS011;15815;46.760;19.604;2023-06-22T00:09:35;20.02;;;6.05;;
28627;SDS011;15815;46.760;19.604;2023-06-22T00:12:01;26.55;;;4.60;;
28627;SDS011;15815;46.760;19.604;2023-06-22T00:14:28;14.57;;;5.00;;
28627;SDS011;15815;46.760;19.604;2023-06-22T00:16:54;17.42;;;5.18;;
28627;SDS011;15815;46.760;19.604;2023-06-22T00:19:20;11.68;;;4.85;;
28627;SDS011;15815;46.760;19.604;2023-06-22T00:21:46;15.27;;;5.13;;
28627;SDS011;15815;46.760;19.604;2023-06-22T00:24:11;20.15;;;4.93;;
28627;SDS011;15815;46.760;19.604;2023-06-22T00:26:37;24.08;;;5.03;;
28627;SDS011;15815;46.760;19.604;2023-06-22T00:29:03;13.77;;;6.03;;
28627;SDS011;15815;46.760;19.604;2023-06-22T00:31:28;15.40;;;4.60;;
28627;SDS011;15815;46.760;19.604;2023-06-22T00:33:54;14.20;;;4.72;;
28627;SDS011;15815;46.760;19.604;2023-06-22T00:36:22;13.73;;;5.35;;
28627;SDS011;15815;46.760;19.604;2023-06-22T00:38:47;16.48;;;5.20;;
28627;SDS011;15815;46.760;19.604;2023-06-22T00:41:13;16.50;;;5.28;;
28627;SDS011;15815;46.760;19.604;2023-06-22T00:43:38;15.20;;;4.70;;
28627;SDS011;15815;46.760;19.604;2023-06-22T00:46:04;16.13;;;4.63;;
28627;SDS011;15815;46.760;19.604;2023-06-22T00:48:31;20.20;;;5.53;;
28627;SDS011;15815;46.760;19.604;2023-06-22T00:50:57;14.32;;;5.32;;
28627;SDS011;15815;46.760;19.604;2023-06-22T00:53:24;19.02;;;5.65;;
28627;SDS011;15815;46.760;19.604;2023-06-22T00:55:49;15.38;;;4.88;;
28627;SDS011;15815;46.760;19.604;2023-06-22T00:58:15;12.95;;;4.72;;
28627;SDS011;15815;46.760;19.604;2023-06-22T01:00:41;12.77;;;5.03;;
28627;SDS011;15815;46.760;19.604;2023-06-22T01:03:07;14.38;;;4.65;;
28627;SDS011;15815;46.760;19.604;2023-06-22T01:05:33;18.92;;;5.97;;
28627;SDS011;15815;46.760;19.604;2023-06-22T01:08:01;18.50;;;4.97;;
28627;SDS011;15815;46.760;19.604;2023-06-22T01:10:32;10.53;;;4.83;;
28627;SDS011;15815;46.760;19.604;2023-06-22T01:18:36;13.73;;;6.00;;
28627;SDS011;15815;46.760;19.604;2023-06-22T01:21:13;17.42;;;6.55;;
28627;SDS011;15815;46.760;19.604;2023-06-22T01:29:12;17.73;;;6.95;;
28627;SDS011;15815;46.760;19.604;2023-06-22T01:31:39;13.52;;;5.95;;
28627;SDS011;15815;46.760;19.604;2023-06-22T01:34:09;18.35;;;5.95;;
28627;SDS011;15815;46.760;19.604;2023-06-22T01:36:35;11.52;;;5.72;;
28627;SDS011;15815;46.760;19.604;2023-06-22T01:39:02;19.17;;;6.50;;
28627;SDS011;15815;46.760;19.604;2023-06-22T01:41:32;19.42;;;6.45;;
28627;SDS011;15815;46.760;19.604;2023-06-22T01:44:00;18.20;;;6.20;;
28627;SDS011;15815;46.760;19.604;2023-06-22T01:46:26;16.20;;;5.55;;
28627;SDS011;15815;46.760;19.604;2023-06-22T01:48:53;17.98;;;5.57;;
28627;SDS011;15815;46.760;19.604;2023-06-22T01:51:19;19.13;;;5.45;;
28627;SDS011;15815;46.760;19.604;2023-06-22T01:53:45;16.08;;;6.00;;
28627;SDS011;15815;46.760;19.604;2023-06-22T01:56:11;15.48;;;5.85;;
28627;SDS011;15815;46.760;19.604;2023-06-22T01:58:47;16.45;;;5.45;;
28627;SDS011;15815;46.760;19.604;2023-06-22T02:01:17;16.75;;;6.25;;
28627;SDS011;15815;46.760;19.604;2023-06-22T02:06:16;10.90;;;5.70;;
28627;SDS011;15815;46.760;19.604;2023-06-22T02:08:51;18.50;;;6.03;;
28627;SDS011;15815;46.760;19.604;2023-06-22T02:11:22;23.02;;;6.00;;
28627;SDS011;15815;46.760;19.604;2023-06-22T02:13:50;12.90;;;5.90;;
28627;SDS011;15815;46.760;19.604;2023-06-22T02:16:16;16.02;;;5.93;;
28627;SDS011;15815;46.760;19.604;2023-06-22T02:18:47;15.27;;;5.82;;
28627;SDS011;15815;46.760;19.604;2023-06-22T02:21:13;12.83;;;5.67;;
28627;SDS011;15815;46.760;19.604;2023-06-22T02:23:39;13.35;;;6.25;;
28627;SDS011;15815;46.760;19.604;2023-06-22T02:26:04;11.63;;;5.55;;
28627;SDS011;15815;46.760;19.604;2023-06-22T02:28:30;15.00;;;5.53;;
28627;SDS011;15815;46.760;19.604;2023-06-22T02:30:56;16.17;;;5.90;;
28627;SDS011;15815;46.760;19.604;2023-06-22T02:33:22;16.75;;;6.22;;
28627;SDS011;15815;46.760;19.604;2023-06-22T02:35:47;13.95;;;6.57;;
28627;SDS011;15815;46.760;19.604;2023-06-22T02:38:13;13.93;;;6.78;;
28627;SDS011;15815;46.760;19.604;2023-06-22T02:40:38;14.15;;;6.78;;
28627;SDS011;15815;46.760;19.604;2023-06-22T02:43:06;20.83;;;6.47;;
28627;SDS011;15815;46.760;19.604;2023-06-22T02:45:31;20.13;;;6.15;;
28627;SDS011;15815;46.760;19.604;2023-06-22T02:47:57;24.23;;;6.50;;
28627;SDS011;15815;46.760;19.604;2023-06-22T02:50:22;19.45;;;6.53;;
28627;SDS011;15815;46.760;19.604;2023-06-22T02:52:48;12.43;;;5.97;;
28627;SDS011;15815;46.760;19.604;2023-06-22T02:55:14;9.98;;;6.03;;
28627;SDS011;15815;46.760;19.604;2023-06-22T02:57:39;16.25;;;7.20;;
28627;SDS011;15815;46.760;19.604;2023-06-22T03:00:06;12.30;;;6.38;;
28627;SDS011;15815;46.760;19.604;2023-06-22T03:02:32;14.98;;;5.90;;
28627;SDS011;15815;46.760;19.604;2023-06-22T03:04:58;13.70;;;6.22;;
28627;SDS011;15815;46.760;19.604;2023-06-22T03:07:23;11.50;;;6.70;;
28627;SDS011;15815;46.760;19.604;2023-06-22T03:09:49;15.65;;;6.28;;
28627;SDS011;15815;46.760;19.604;2023-06-22T03:12:14;20.35;;;6.78;;
28627;SDS011;15815;46.760;19.604;2023-06-22T03:14:46;15.93;;;7.20;;
28627;SDS011;15815;46.760;19.604;2023-06-22T03:17:11;16.08;;;7.30;;
28627;SDS011;15815;46.760;19.604;2023-06-22T03:19:37;22.33;;;7.10;;
28627;SDS011;15815;46.760;19.604;2023-06-22T03:22:02;12.93;;;6.63;;
28627;SDS011;15815;46.760;19.604;2023-06-22T03:24:28;53.35;;;32.25;;
28627;SDS011;15815;46.760;19.604;2023-06-22T03:26:54;47.92;;;28.40;;
28627;SDS011;15815;46.760;19.604;2023-06-22T03:29:19;35.65;;;20.55;;
28627;SDS011;15815;46.760;19.604;2023-06-22T03:31:45;25.50;;;11.23;;
28627;SDS011;15815;46.760;19.604;2023-06-22T03:34:10;21.05;;;9.48;;
28627;SDS011;15815;46.760;19.604;2023-06-22T03:36:36;11.38;;;7.40;;
28627;SDS011;15815;46.760;19.604;2023-06-22T03:39:02;14.90;;;7.43;;
28627;SDS011;15815;46.760;19.604;2023-06-22T03:41:27;17.80;;;6.55;;
28627;SDS011;15815;46.760;19.604;2023-06-22T03:43:53;21.25;;;6.82;;
28627;SDS011;15815;46.760;19.604;2023-06-22T03:46:18;20.50;;;7.13;;
28627;SDS011;15815;46.760;19.604;2023-06-22T03:48:44;20.02;;;7.28;;
28627;SDS011;15815;46.760;19.604;2023-06-22T03:51:09;16.95;;;6.65;;
28627;SDS011;15815;46.760;19.604;2023-06-22T03:53:35;14.07;;;6.78;;
28627;SDS011;15815;46.760;19.604;2023-06-22T03:56:01;16.45;;;7.65;;
28627;SDS011;15815;46.760;19.604;2023-06-22T03:58:26;16.67;;;7.32;;
28627;SDS011;15815;46.760;19.604;2023-06-22T04:00:52;16.05;;;7.85;;
28627;SDS011;15815;46.760;19.604;2023-06-22T04:03:18;22.33;;;6.80;;
28627;SDS011;15815;46.760;19.604;2023-06-22T04:05:44;17.40;;;7.80;;
28627;SDS011;15815;46.760;19.604;2023-06-22T04:08:10;18.00;;;7.38;;
28627;SDS011;15815;46.760;19.604;2023-06-22T04:10:35;13.63;;;6.72;;
28627;SDS011;15815;46.760;19.604;2023-06-22T04:13:01;17.40;;;7.30;;
28627;SDS011;15815;46.760;19.604;2023-06-22T04:15:27;16.85;;;6.90;;
28627;SDS011;15815;46.760;19.604;2023-06-22T04:17:54;24.85;;;8.73;;
28627;SDS011;15815;46.760;19.604;2023-06-22T04:20:20;13.52;;;6.78;;
28627;SDS011;15815;46.760;19.604;2023-06-22T04:22:46;15.60;;;7.93;;
28627;SDS011;15815;46.760;19.604;2023-06-22T04:25:12;12.10;;;6.88;;
28627;SDS011;15815;46.760;19.604;2023-06-22T04:27:37;15.80;;;7.13;;
28627;SDS011;15815;46.760;19.604;2023-06-22T04:30:03;13.40;;;6.70;;
28627;SDS011;15815;46.760;19.604;2023-06-22T04:32:29;19.20;;;6.93;;
28627;SDS011;15815;46.760;19.604;2023-06-22T04:34:55;16.95;;;6.47;;
28627;SDS011;15815;46.760;19.604;2023-06-22T04:37:20;15.27;;;6.80;;
28627;SDS011;15815;46.760;19.604;2023-06-22T04:39:46;16.90;;;6.70;;
28627;SDS011;15815;46.760;19.604;2023-06-22T04:42:12;17.80;;;6.63;;
28627;SDS011;15815;46.760;19.604;2023-06-22T04:44:40;12.00;;;6.22;;
28627;SDS011;15815;46.760;19.604;2023-06-22T04:47:06;9.50;;;5.55;;
28627;SDS011;15815;46.760;19.604;2023-06-22T04:49:31;13.32;;;5.55;;
28627;SDS011;15815;46.760;19.604;2023-06-22T04:51:57;9.82;;;5.32;;
28627;SDS011;15815;46.760;19.604;2023-06-22T04:54:23;15.68;;;7.38;;
28627;SDS011;15815;46.760;19.604;2023-06-22T04:56:48;9.15;;;5.57;;
28627;SDS011;15815;46.760;19.604;2023-06-22T04:59:14;20.50;;;6.43;;
28627;SDS011;15815;46.760;19.604;2023-06-22T05:01:40;17.17;;;5.38;;
28627;SDS011;15815;46.760;19.604;2023-06-22T05:04:05;17.73;;;5.88;;
28627;SDS011;15815;46.760;19.604;2023-06-22T05:06:31;15.52;;;5.90;;
28627;SDS011;15815;46.760;19.604;2023-06-22T05:08:57;16.17;;;5.05;;
28627;SDS011;15815;46.760;19.604;2023-06-22T05:11:24;16.42;;;6.35;;
28627;SDS011;15815;46.760;19.604;2023-06-22T05:13:50;13.77;;;5.13;;
28627;SDS011;15815;46.760;19.604;2023-06-22T05:16:16;8.65;;;4.85;;
28627;SDS011;15815;46.760;19.604;2023-06-22T05:18:41;12.40;;;5.47;;
28627;SDS011;15815;46.760;19.604;2023-06-22T05:21:07;17.40;;;4.70;;
28627;SDS011;15815;46.760;19.604;2023-06-22T05:23:32;13.77;;;4.50;;
28627;SDS011;15815;46.760;19.604;2023-06-22T05:25:58;11.88;;;5.03;;
28627;SDS011;15815;46.760;19.604;2023-06-22T05:28:23;12.00;;;4.60;;
28627;SDS011;15815;46.760;19.604;2023-06-22T05:30:49;19.70;;;5.32;;
28627;SDS011;15815;46.760;19.604;2023-06-22T05:33:14;19.35;;;5.72;;
28627;SDS011;15815;46.760;19.604;2023-06-22T05:35:40;16.00;;;5.20;;
28627;SDS011;15815;46.760;19.604;2023-06-22T05:38:05;9.93;;;5.03;;
28627;SDS011;15815;46.760;19.604;2023-06-22T05:40:31;11.60;;;4.28;;
28627;SDS011;15815;46.760;19.604;2023-06-22T05:42:57;10.07;;;4.72;;
28627;SDS011;15815;46.760;19.604;2023-06-22T05:45:22;8.80;;;4.85;;
28627;SDS011;15815;46.760;19.604;2023-06-22T05:47:48;6.68;;;4.35;;
28627;SDS011;15815;46.760;19.604;2023-06-22T05:50:13;15.95;;;4.70;;
28627;SDS011;15815;46.760;19.604;2023-06-22T05:52:39;7.90;;;4.55;;
28627;SDS011;15815;46.760;19.604;2023-06-22T05:55:04;12.20;;;5.65;;
28627;SDS011;15815;46.760;19.604;2023-06-22T05:57:30;9.75;;;4.30;;
28627;SDS011;15815;46.760;19.604;2023-06-22T05:59:55;13.20;;;5.30;;
28627;SDS011;15815;46.760;19.604;2023-06-22T06:02:21;9.35;;;5.47;;
28627;SDS011;15815;46.760;19.604;2023-06-22T06:04:47;9.60;;;5.00;;
28627;SDS011;15815;46.760;19.604;2023-06-22T06:07:12;8.32;;;4.78;;
28627;SDS011;15815;46.760;19.604;2023-06-22T06:09:38;12.23;;;5.07;;
28627;SDS011;15815;46.760;19.604;2023-06-22T06:12:03;6.65;;;4.75;;
28627;SDS011;15815;46.760;19.604;2023-06-22T06:14:29;10.88;;;4.63;;
28627;SDS011;15815;46.760;19.604;2023-06-22T06:16:54;8.35;;;4.35;;
28627;SDS011;15815;46.760;19.604;2023-06-22T06:19:20;6.30;;;4.15;;
28627;SDS011;15815;46.760;19.604;2023-06-22T06:21:45;10.63;;;5.40;;
28627;SDS011;15815;46.760;19.604;2023-06-22T06:24:11;7.68;;;4.40;;
28627;SDS011;15815;46.760;19.604;2023-06-22T06:26:37;11.00;;;4.72;;
28627;SDS011;15815;46.760;19.604;2023-06-22T06:29:02;10.55;;;4.70;;
28627;SDS011;15815;46.760;19.604;2023-06-22T06:31:28;12.85;;;5.50;;
28627;SDS011;15815;46.760;19.604;2023-06-22T06:33:54;10.35;;;4.65;;
28627;SDS011;15815;46.760;19.604;2023-06-22T06:36:23;6.90;;;4.30;;
28627;SDS011;15815;46.760;19.604;2023-06-22T06:38:48;13.55;;;4.38;;
28627;SDS011;15815;46.760;19.604;2023-06-22T06:41:15;15.55;;;4.22;;
28627;SDS011;15815;46.760;19.604;2023-06-22T06:43:41;7.45;;;5.57;;
28627;SDS011;15815;46.760;19.604;2023-06-22T06:46:07;13.95;;;5.35;;
28627;SDS011;15815;46.760;19.604;2023-06-22T06:48:33;7.72;;;4.85;;
28627;SDS011;15815;46.760;19.604;2023-06-22T06:50:59;12.65;;;5.10;;
28627;SDS011;15815;46.760;19.604;2023-06-22T06:53:24;7.90;;;4.75;;
28627;SDS011;15815;46.760;19.604;2023-06-22T06:55:50;12.30;;;5.05;;
28627;SDS011;15815;46.760;19.604;2023-06-22T06:58:15;19.25;;;5.00;;
28627;SDS011;15815;46.760;19.604;2023-06-22T07:00:41;8.85;;;4.38;;
28627;SDS011;15815;46.760;19.604;2023-06-22T07:03:06;5.88;;;4.45;;
28627;SDS011;15815;46.760;19.604;2023-06-22T07:05:35;11.52;;;4.75;;
28627;SDS011;15815;46.760;19.604;2023-06-22T07:08:01;9.40;;;4.35;;
28627;SDS011;15815;46.760;19.604;2023-06-22T07:10:28;8.43;;;3.85;;
28627;SDS011;15815;46.760;19.604;2023-06-22T07:12:54;9.13;;;4.47;;
28627;SDS011;15815;46.760;19.604;2023-06-22T07:15:20;12.00;;;4.60;;
28627;SDS011;15815;46.760;19.604;2023-06-22T07:17:45;10.88;;;4.45;;
28627;SDS011;15815;46.760;19.604;2023-06-22T07:20:11;8.15;;;4.18;;
28627;SDS011;15815;46.760;19.604;2023-06-22T07:22:40;10.18;;;4.32;;
28627;SDS011;15815;46.760;19.604;2023-06-22T07:25:07;10.15;;;4.25;;
28627;SDS011;15815;46.760;19.604;2023-06-22T07:27:32;11.35;;;4.88;;
28627;SDS011;15815;46.760;19.604;2023-06-22T07:29:58;8.77;;;3.97;;
28627;SDS011;15815;46.760;19.604;2023-06-22T07:32:23;9.18;;;4.05;;
28627;SDS011;15815;46.760;19.604;2023-06-22T07:34:49;9.02;;;3.72;;
28627;SDS011;15815;46.760;19.604;2023-06-22T07:37:14;8.95;;;4.25;;
28627;SDS011;15815;46.760;19.604;2023-06-22T07:39:40;9.75;;;4.82;;
28627;SDS011;15815;46.760;19.604;2023-06-22T07:42:05;11.35;;;4.43;;
28627;SDS011;15815;46.760;19.604;2023-06-22T07:44:31;10.13;;;4.82;;
28627;SDS011;15815;46.760;19.604;2023-06-22T07:46:56;10.57;;;3.97;;
28627;SDS011;15815;46.760;19.604;2023-06-22T07:49:22;8.65;;;3.50;;
28627;SDS011;15815;46.760;19.604;2023-06-22T07:51:47;10.27;;;3.60;;
28627;SDS011;15815;46.760;19.604;2023-06-22T07:54:13;6.88;;;4.10;;
28627;SDS011;15815;46.760;19.604;2023-06-22T07:56:39;6.80;;;4.38;;
28627;SDS011;15815;46.760;19.604;2023-06-22T07:59:04;5.35;;;4.20;;
28627;SDS011;15815;46.760;19.604;2023-06-22T08:01:30;9.88;;;4.35;;
28627;SDS011;15815;46.760;19.604;2023-06-22T08:03:55;11.18;;;4.70;;
28627;SDS011;15815;46.760;19.604;2023-06-22T08:06:21;9.80;;;4.38;;
28627;SDS011;15815;46.760;19.604;2023-06-22T08:08:46;11.55;;;4.20;;
28627;SDS011;15815;46.760;19.604;2023-06-22T08:11:12;16.15;;;4.55;;
28627;SDS011;15815;46.760;19.604;2023-06-22T08:13:37;15.50;;;4.45;;
28627;SDS011;15815;46.760;19.604;2023-06-22T08:16:03;5.75;;;4.47;;
28627;SDS011;15815;46.760;19.604;2023-06-22T08:18:30;12.57;;;4.85;;
28627;SDS011;15815;46.760;19.604;2023-06-22T08:20:55;8.93;;;4.60;;
28627;SDS011;15815;46.760;19.604;2023-06-22T08:23:21;8.88;;;4.35;;
28627;SDS011;15815;46.760;19.604;2023-06-22T08:25:46;7.30;;;4.68;;
28627;SDS011;15815;46.760;19.604;2023-06-22T08:28:15;6.55;;;4.03;;
28627;SDS011;15815;46.760;19.604;2023-06-22T08:30:41;9.05;;;4.28;;
28627;SDS011;15815;46.760;19.604;2023-06-22T08:33:07;4.47;;;3.50;;
28627;SDS011;15815;46.760;19.604;2023-06-22T08:35:32;12.20;;;4.75;;
28627;SDS011;15815;46.760;19.604;2023-06-22T08:37:58;11.88;;;4.22;;
28627;SDS011;15815;46.760;19.604;2023-06-22T08:40:23;7.07;;;4.90;;
28627;SDS011;15815;46.760;19.604;2023-06-22T08:42:49;8.50;;;4.20;;
28627;SDS011;15815;46.760;19.604;2023-06-22T08:45:18;7.82;;;3.70;;
28627;SDS011;15815;46.760;19.604;2023-06-22T08:47:43;10.52;;;4.63;;
28627;SDS011;15815;46.760;19.604;2023-06-22T08:50:10;7.43;;;4.85;;
28627;SDS011;15815;46.760;19.604;2023-06-22T08:52:36;7.25;;;4.22;;
28627;SDS011;15815;46.760;19.604;2023-06-22T08:55:03;7.85;;;4.78;;
28627;SDS011;15815;46.760;19.604;2023-06-22T08:57:29;8.60;;;4.70;;
28627;SDS011;15815;46.760;19.604;2023-06-22T08:59:54;6.00;;;4.30;;
28627;SDS011;15815;46.760;19.604;2023-06-22T09:02:20;6.25;;;4.28;;
28627;SDS011;15815;46.760;19.604;2023-06-22T09:04:46;13.45;;;4.57;;
28627;SDS011;15815;46.760;19.604;2023-06-22T09:07:12;8.80;;;4.35;;
28627;SDS011;15815;46.760;19.604;2023-06-22T09:09:37;7.13;;;4.40;;
28627;SDS011;15815;46.760;19.604;2023-06-22T09:12:03;15.75;;;4.55;;
28627;SDS011;15815;46.760;19.604;2023-06-22T09:14:29;8.50;;;4.68;;
28627;SDS011;15815;46.760;19.604;2023-06-22T09:16:55;10.43;;;4.57;;
28627;SDS011;15815;46.760;19.604;2023-06-22T09:19:20;8.07;;;4.40;;
28627;SDS011;15815;46.760;19.604;2023-06-22T09:21:46;8.75;;;4.47;;
28627;SDS011;15815;46.760;19.604;2023-06-22T09:24:11;11.10;;;4.43;;
28627;SDS011;15815;46.760;19.604;2023-06-22T09:26:37;6.78;;;4.30;;
28627;SDS011;15815;46.760;19.604;2023-06-22T09:29:04;7.55;;;4.68;;
28627;SDS011;15815;46.760;19.604;2023-06-22T09:31:30;7.93;;;4.53;;
28627;SDS011;15815;46.760;19.604;2023-06-22T09:33:56;6.30;;;4.28;;
28627;SDS011;15815;46.760;19.604;2023-06-22T09:36:21;11.63;;;4.55;;
28627;SDS011;15815;46.760;19.604;2023-06-22T09:38:48;7.20;;;4.70;;
28627;SDS011;15815;46.760;19.604;2023-06-22T09:41:14;8.50;;;4.97;;
28627;SDS011;15815;46.760;19.604;2023-06-22T09:43:40;13.40;;;4.35;;
28627;SDS011;15815;46.760;19.604;2023-06-22T09:46:06;8.05;;;4.63;;
28627;SDS011;15815;46.760;19.604;2023-06-22T09:48:31;8.88;;;4.78;;
28627;SDS011;15815;46.760;19.604;2023-06-22T09:50:57;11.30;;;4.70;;
28627;SDS011;15815;46.760;19.604;2023-06-22T09:53:23;11.73;;;4.78;;
28627;SDS011;15815;46.760;19.604;2023-06-22T09:55:48;5.28;;;4.22;;
28627;SDS011;15815;46.760;19.604;2023-06-22T09:58:14;5.55;;;4.43;;
28627;SDS011;15815;46.760;19.604;2023-06-22T10:00:39;7.45;;;4.55;;
28627;SDS011;15815;46.760;19.604;2023-06-22T10:03:05;7.03;;;4.60;;
28627;SDS011;15815;46.760;19.604;2023-06-22T10:05:31;7.53;;;4.95;;
28627;SDS011;15815;46.760;19.604;2023-06-22T10:07:56;11.10;;;4.57;;
28627;SDS011;15815;46.760;19.604;2023-06-22T10:10:22;8.18;;;5.75;;
28627;SDS011;15815;46.760;19.604;2023-06-22T10:12:55;11.50;;;5.25;;
28627;SDS011;15815;46.760;19.604;2023-06-22T10:15:22;15.15;;;5.93;;
28627;SDS011;15815;46.760;19.604;2023-06-22T10:17:50;8.25;;;6.07;;
28627;SDS011;15815;46.760;19.604;2023-06-22T10:20:16;9.85;;;6.00;;
28627;SDS011;15815;46.760;19.604;2023-06-22T10:22:42;11.32;;;5.30;;
28627;SDS011;15815;46.760;19.604;2023-06-22T10:25:09;6.55;;;5.50;;
28627;SDS011;15815;46.760;19.604;2023-06-22T10:27:36;11.60;;;5.72;;
28627;SDS011;15815;46.760;19.604;2023-06-22T10:30:02;10.43;;;5.43;;
28627;SDS011;15815;46.760;19.604;2023-06-22T10:32:28;9.95;;;5.90;;
28627;SDS011;15815;46.760;19.604;2023-06-22T10:34:53;11.52;;;6.05;;
28627;SDS011;15815;46.760;19.604;2023-06-22T10:37:22;7.25;;;5.85;;
28627;SDS011;15815;46.760;19.604;2023-06-22T10:39:47;9.60;;;5.72;;
28627;SDS011;15815;46.760;19.604;2023-06-22T10:42:13;10.75;;;5.97;;
28627;SDS011;15815;46.760;19.604;2023-06-22T10:44:42;7.15;;;6.05;;
28627;SDS011;15815;46.760;19.604;2023-06-22T10:47:08;8.88;;;6.20;;
28627;SDS011;15815;46.760;19.604;2023-06-22T10:49:33;13.23;;;6.25;;
28627;SDS011;15815;46.760;19.604;2023-06-22T10:51:59;8.60;;;5.15;;
28627;SDS011;15815;46.760;19.604;2023-06-22T10:54:24;9.45;;;6.53;;
28627;SDS011;15815;46.760;19.604;2023-06-22T10:56:50;6.97;;;6.00;;
28627;SDS011;15815;46.760;19.604;2023-06-22T10:59:16;7.55;;;6.28;;
28627;SDS011;15815;46.760;19.604;2023-06-22T11:01:41;18.30;;;6.43;;
28627;SDS011;15815;46.760;19.604;2023-06-22T11:04:07;13.15;;;6.18;;
28627;SDS011;15815;46.760;19.604;2023-06-22T11:06:32;10.25;;;6.45;;
28627;SDS011;15815;46.760;19.604;2023-06-22T11:08:58;9.73;;;6.30;;
28627;SDS011;15815;46.760;19.604;2023-06-22T11:11:25;9.20;;;6.55;;
28627;SDS011;15815;46.760;19.604;2023-06-22T11:13:52;13.38;;;6.25;;
28627;SDS011;15815;46.760;19.604;2023-06-22T11:16:18;11.27;;;6.68;;
28627;SDS011;15815;46.760;19.604;2023-06-22T11:18:43;14.07;;;6.53;;
28627;SDS011;15815;46.760;19.604;2023-06-22T11:21:09;14.02;;;6.72;;
28627;SDS011;15815;46.760;19.604;2023-06-22T11:23:34;8.93;;;6.65;;
28627;SDS011;15815;46.760;19.604;2023-06-22T11:26:00;13.23;;;6.50;;
28627;SDS011;15815;46.760;19.604;2023-06-22T11:28:25;9.48;;;6.72;;
28627;SDS011;15815;46.760;19.604;2023-06-22T11:30:52;11.75;;;7.28;;
28627;SDS011;15815;46.760;19.604;2023-06-22T11:33:17;12.88;;;7.18;;
28627;SDS011;15815;46.760;19.604;2023-06-22T11:35:43;11.07;;;6.88;;
28627;SDS011;15815;46.760;19.604;2023-06-22T11:38:09;9.48;;;6.80;;
28627;SDS011;15815;46.760;19.604;2023-06-22T11:40:34;8.80;;;6.72;;
28627;SDS011;15815;46.760;19.604;2023-06-22T11:43:00;8.43;;;7.47;;
28627;SDS011;15815;46.760;19.604;2023-06-22T11:45:26;11.95;;;6.75;;
28627;SDS011;15815;46.760;19.604;2023-06-22T11:47:52;10.00;;;7.35;;
28627;SDS011;15815;46.760;19.604;2023-06-22T11:50:17;14.27;;;7.07;;
28627;SDS011;15815;46.760;19.604;2023-06-22T11:52:43;14.95;;;7.15;;
28627;SDS011;15815;46.760;19.604;2023-06-22T11:55:09;15.05;;;7.22;;
28627;SDS011;15815;46.760;19.604;2023-06-22T11:57:38;13.05;;;7.55;;
28627;SDS011;15815;46.760;19.604;2023-06-22T12:00:04;10.95;;;7.05;;
28627;SDS011;15815;46.760;19.604;2023-06-22T12:02:30;13.27;;;6.93;;
28627;SDS011;15815;46.760;19.604;2023-06-22T12:04:59;7.75;;;6.97;;
28627;SDS011;15815;46.760;19.604;2023-06-22T12:07:24;10.30;;;7.07;;
28627;SDS011;15815;46.760;19.604;2023-06-22T12:09:50;10.45;;;7.20;;
28627;SDS011;15815;46.760;19.604;2023-06-22T12:12:15;11.98;;;6.78;;
28627;SDS011;15815;46.760;19.604;2023-06-22T12:14:41;12.50;;;6.60;;
28627;SDS011;15815;46.760;19.604;2023-06-22T12:17:07;18.25;;;7.15;;
28627;SDS011;15815;46.760;19.604;2023-06-22T12:19:32;8.80;;;7.13;;
28627;SDS011;15815;46.760;19.604;2023-06-22T12:21:58;12.00;;;7.07;;
28627;SDS011;15815;46.760;19.604;2023-06-22T12:24:23;11.90;;;6.88;;
28627;SDS011;15815;46.760;19.604;2023-06-22T12:26:49;14.05;;;7.07;;
28627;SDS011;15815;46.760;19.604;2023-06-22T12:29:18;12.48;;;6.82;;
28627;SDS011;15815;46.760;19.604;2023-06-22T12:31:43;18.30;;;7.15;;
28627;SDS011;15815;46.760;19.604;2023-06-22T12:34:09;15.65;;;7.15;;
28627;SDS011;15815;46.760;19.604;2023-06-22T12:36:34;13.90;;;7.25;;
28627;SDS011;15815;46.760;19.604;2023-06-22T12:39:00;13.45;;;7.00;;
28627;SDS011;15815;46.760;19.604;2023-06-22T12:41:25;17.52;;;7.38;;
28627;SDS011;15815;46.760;19.604;2023-06-22T12:43:51;12.60;;;7.07;;
28627;SDS011;15815;46.760;19.604;2023-06-22T12:46:16;15.70;;;7.57;;
28627;SDS011;15815;46.760;19.604;2023-06-22T12:48:42;11.10;;;7.18;;
28627;SDS011;15815;46.760;19.604;2023-06-22T12:51:11;8.52;;;7.13;;
28627;SDS011;15815;46.760;19.604;2023-06-22T12:53:39;8.68;;;7.05;;
28627;SDS011;15815;46.760;19.604;2023-06-22T12:56:06;15.32;;;7.88;;
28627;SDS011;15815;46.760;19.604;2023-06-22T12:58:32;17.05;;;7.90;;
28627;SDS011;15815;46.760;19.604;2023-06-22T13:00:58;14.65;;;7.95;;
28627;SDS011;15815;46.760;19.604;2023-06-22T13:03:23;11.35;;;7.10;;
28627;SDS011;15815;46.760;19.604;2023-06-22T13:05:49;23.98;;;7.80;;
28627;SDS011;15815;46.760;19.604;2023-06-22T13:08:15;15.75;;;7.57;;
28627;SDS011;15815;46.760;19.604;2023-06-22T13:10:41;19.33;;;7.53;;
28627;SDS011;15815;46.760;19.604;2023-06-22T13:13:07;9.32;;;6.70;;
28627;SDS011;15815;46.760;19.604;2023-06-22T13:15:33;13.27;;;7.45;;
28627;SDS011;15815;46.760;19.604;2023-06-22T13:17:58;15.98;;;7.18;;
28627;SDS011;15815;46.760;19.604;2023-06-22T13:20:24;16.00;;;7.32;;
28627;SDS011;15815;46.760;19.604;2023-06-22T13:22:49;14.13;;;8.07;;
28627;SDS011;15815;46.760;19.604;2023-06-22T13:25:15;17.98;;;7.97;;
28627;SDS011;15815;46.760;19.604;2023-06-22T13:27:41;20.60;;;7.68;;
28627;SDS011;15815;46.760;19.604;2023-06-22T13:30:07;12.48;;;7.05;;
28627;SDS011;15815;46.760;19.604;2023-06-22T13:32:33;15.93;;;7.55;;
28627;SDS011;15815;46.760;19.604;2023-06-22T13:34:59;13.20;;;7.40;;
28627;SDS011;15815;46.760;19.604;2023-06-22T13:37:25;11.40;;;6.85;;
28627;SDS011;15815;46.760;19.604;2023-06-22T13:39:52;13.20;;;7.15;;
28627;SDS011;15815;46.760;19.604;2023-06-22T13:42:17;12.27;;;7.45;;
28627;SDS011;15815;46.760;19.604;2023-06-22T13:44:43;11.65;;;6.72;;
28627;SDS011;15815;46.760;19.604;2023-06-22T13:49:40;9.02;;;6.78;;
28627;SDS011;15815;46.760;19.604;2023-06-22T13:52:06;9.20;;;7.47;;
28627;SDS011;15815;46.760;19.604;2023-06-22T13:54:32;9.63;;;6.70;;
28627;SDS011;15815;46.760;19.604;2023-06-22T13:56:57;10.10;;;7.40;;
28627;SDS011;15815;46.760;19.604;2023-06-22T13:59:23;11.13;;;7.22;;
28627;SDS011;15815;46.760;19.604;2023-06-22T14:01:49;11.43;;;7.25;;
28627;SDS011;15815;46.760;19.604;2023-06-22T14:04:14;13.52;;;7.43;;
28627;SDS011;15815;46.760;19.604;2023-06-22T14:06:40;8.60;;;7.40;;
28627;SDS011;15815;46.760;19.604;2023-06-22T14:09:05;8.30;;;6.75;;
28627;SDS011;15815;46.760;19.604;2023-06-22T14:11:31;15.50;;;7.22;;
28627;SDS011;15815;46.760;19.604;2023-06-22T14:13:56;14.93;;;7.55;;
28627;SDS011;15815;46.760;19.604;2023-06-22T14:16:22;13.25;;;7.90;;
28627;SDS011;15815;46.760;19.604;2023-06-22T14:18:47;11.30;;;8.00;;
28627;SDS011;15815;46.760;19.604;2023-06-22T14:21:13;19.17;;;8.48;;
28627;SDS011;15815;46.760;19.604;2023-06-22T14:23:38;15.60;;;7.85;;
28627;SDS011;15815;46.760;19.604;2023-06-22T14:26:04;13.43;;;8.05;;
28627;SDS011;15815;46.760;19.604;2023-06-22T14:28:29;15.48;;;7.85;;
28627;SDS011;15815;46.760;19.604;2023-06-22T14:30:55;14.80;;;7.65;;
28627;SDS011;15815;46.760;19.604;2023-06-22T14:33:21;13.40;;;7.78;;
28627;SDS011;15815;46.760;19.604;2023-06-22T14:35:47;9.65;;;7.43;;